sensor_id;sensor_type;location;lat;lon;timestamp;temperature;humidity
5834;DHT22;2943;48.012;10.968;2022-11-20T00:01:19;4.30;99.90
5834;DHT22;2943;48.012;10.968;2022-11-20T00:03:46;4.30;99.90
5834;DHT22;2943;48.012;10.968;2022-11-20T00:06:15;4.30;99.90
5834;DHT22;2943;48.012;10.968;2022-11-20T00:08:42;4.30;99.90
5834;DHT22;2943;48.012;10.968;2022-11-20T00:11:11;4.30;99.90
5834;DHT22;2943;48.012;10.968;2022-11-20T00:13:38;4.30;99.90
5834;DHT22;2943;48.012;10.968;2022-11-20T00:16:08;4.40;99.90
5834;DHT22;2943;48.012;10.968;2022-11-20T00:18:37;4.40;99.90
5834;DHT22;2943;48.012;10.968;2022-11-20T00:21:06;4.40;99.90
5834;DHT22;2943;48.012;10.968;2022-11-20T00:23:33;4.40;99.90
5834;DHT22;2943;48.012;10.968;2022-11-20T00:26:04;4.40;99.90
5834;DHT22;2943;48.012;10.968;2022-11-20T00:28:31;4.40;99.90
5834;DHT22;2943;48.012;10.968;2022-11-20T00:31:03;4.30;99.90
5834;DHT22;2943;48.012;10.968;2022-11-20T00:33:30;4.30;99.90
5834;DHT22;2943;48.012;10.968;2022-11-20T00:36:03;4.30;99.90
5834;DHT22;2943;48.012;10.968;2022-11-20T00:38:30;4.30;99.90
5834;DHT22;2943;48.012;10.968;2022-11-20T00:40:58;4.30;99.90
5834;DHT22;2943;48.012;10.968;2022-11-20T00:43:26;4.30;99.90
5834;DHT22;2943;48.012;10.968;2022-11-20T00:45:56;4.30;99.90
5834;DHT22;2943;48.012;10.968;2022-11-20T00:48:23;4.40;99.90
5834;DHT22;2943;48.012;10.968;2022-11-20T00:50:50;4.40;99.90
5834;DHT22;2943;48.012;10.968;2022-11-20T00:53:20;4.40;99.90
5834;DHT22;2943;48.012;10.968;2022-11-20T00:55:56;4.40;99.90
5834;DHT22;2943;48.012;10.968;2022-11-20T00:58:28;4.40;99.90
5834;DHT22;2943;48.012;10.968;2022-11-20T01:01:00;4.40;99.90
5834;DHT22;2943;48.012;10.968;2022-11-20T01:03:30;4.40;99.90
5834;DHT22;2943;48.012;10.968;2022-11-20T01:06:00;4.40;99.90
5834;DHT22;2943;48.012;10.968;2022-11-20T01:08:31;4.40;99.90
5834;DHT22;2943;48.012;10.968;2022-11-20T01:11:02;4.40;99.90
5834;DHT22;2943;48.012;10.968;2022-11-20T01:13:30;4.40;99.90
5834;DHT22;2943;48.012;10.968;2022-11-20T01:16:04;4.40;99.90
5834;DHT22;2943;48.012;10.968;2022-11-20T01:18:31;4.40;99.90
5834;DHT22;2943;48.012;10.968;2022-11-20T01:21:01;4.40;99.90
5834;DHT22;2943;48.012;10.968;2022-11-20T01:23:32;4.40;99.90
5834;DHT22;2943;48.012;10.968;2022-11-20T01:26:01;4.40;99.90
5834;DHT22;2943;48.012;10.968;2022-11-20T01:28:28;4.40;99.90
5834;DHT22;2943;48.012;10.968;2022-11-20T01:30:56;4.40;99.90
5834;DHT22;2943;48.012;10.968;2022-11-20T01:33:23;4.30;99.90
5834;DHT22;2943;48.012;10.968;2022-11-20T01:35:51;4.40;99.90
5834;DHT22;2943;48.012;10.968;2022-11-20T01:38:18;4.30;99.90
5834;DHT22;2943;48.012;10.968;2022-11-20T01:40:55;4.30;99.90
5834;DHT22;2943;48.012;10.968;2022-11-20T01:43:23;4.30;99.90
5834;DHT22;2943;48.012;10.968;2022-11-20T01:46:13;4.30;99.90
5834;DHT22;2943;48.012;10.968;2022-11-20T01:48:47;4.30;99.90
5834;DHT22;2943;48.012;10.968;2022-11-20T01:51:23;4.30;99.90
5834;DHT22;2943;48.012;10.968;2022-11-20T01:53:53;4.30;99.90
5834;DHT22;2943;48.012;10.968;2022-11-20T01:56:25;4.30;99.90
5834;DHT22;2943;48.012;10.968;2022-11-20T01:58:55;4.30;99.90
5834;DHT22;2943;48.012;10.968;2022-11-20T02:01:24;4.30;99.90
5834;DHT22;2943;48.012;10.968;2022-11-20T02:03:50;4.30;99.90
5834;DHT22;2943;48.012;10.968;2022-11-20T02:06:23;4.30;99.90
5834;DHT22;2943;48.012;10.968;2022-11-20T02:08:51;4.20;99.90
5834;DHT22;2943;48.012;10.968;2022-11-20T02:11:19;4.30;99.90
5834;DHT22;2943;48.012;10.968;2022-11-20T02:13:48;4.20;99.90
5834;DHT22;2943;48.012;10.968;2022-11-20T02:16:21;4.20;99.90
5834;DHT22;2943;48.012;10.968;2022-11-20T02:18:49;4.20;99.90
5834;DHT22;2943;48.012;10.968;2022-11-20T02:21:27;4.20;99.90
5834;DHT22;2943;48.012;10.968;2022-11-20T02:24:07;4.10;99.90
5834;DHT22;2943;48.012;10.968;2022-11-20T02:26:39;4.10;99.90
5834;DHT22;2943;48.012;10.968;2022-11-20T02:29:07;4.00;99.90
5834;DHT22;2943;48.012;10.968;2022-11-20T02:31:37;4.00;99.90
5834;DHT22;2943;48.012;10.968;2022-11-20T02:34:04;3.90;99.90
5834;DHT22;2943;48.012;10.968;2022-11-20T02:36:32;3.90;99.90
5834;DHT22;2943;48.012;10.968;2022-11-20T02:39:01;3.90;99.90
5834;DHT22;2943;48.012;10.968;2022-11-20T02:41:34;3.90;99.90
5834;DHT22;2943;48.012;10.968;2022-11-20T02:44:02;3.90;99.90
5834;DHT22;2943;48.012;10.968;2022-11-20T02:46:30;3.90;99.90
5834;DHT22;2943;48.012;10.968;2022-11-20T02:48:57;3.90;99.90
5834;DHT22;2943;48.012;10.968;2022-11-20T02:51:24;3.90;99.90
5834;DHT22;2943;48.012;10.968;2022-11-20T02:53:51;3.90;99.90
5834;DHT22;2943;48.012;10.968;2022-11-20T02:56:18;3.90;99.90
5834;DHT22;2943;48.012;10.968;2022-11-20T02:58:47;4.00;99.90
5834;DHT22;2943;48.012;10.968;2022-11-20T03:01:16;4.00;99.90
5834;DHT22;2943;48.012;10.968;2022-11-20T03:03:43;4.00;99.90
5834;DHT22;2943;48.012;10.968;2022-11-20T03:06:10;4.10;99.90
5834;DHT22;2943;48.012;10.968;2022-11-20T03:08:37;4.00;99.90
5834;DHT22;2943;48.012;10.968;2022-11-20T03:11:06;4.10;99.90
5834;DHT22;2943;48.012;10.968;2022-11-20T03:13:34;4.10;99.90
5834;DHT22;2943;48.012;10.968;2022-11-20T03:16:13;4.10;99.90
5834;DHT22;2943;48.012;10.968;2022-11-20T03:18:41;4.10;99.90
5834;DHT22;2943;48.012;10.968;2022-11-20T03:21:09;4.10;99.90
5834;DHT22;2943;48.012;10.968;2022-11-20T03:23:36;4.10;99.90
5834;DHT22;2943;48.012;10.968;2022-11-20T03:26:13;4.10;99.90
5834;DHT22;2943;48.012;10.968;2022-11-20T03:28:41;4.20;99.90
5834;DHT22;2943;48.012;10.968;2022-11-20T03:31:11;4.20;99.90
5834;DHT22;2943;48.012;10.968;2022-11-20T03:33:39;4.20;99.90
5834;DHT22;2943;48.012;10.968;2022-11-20T03:36:08;4.20;99.90
5834;DHT22;2943;48.012;10.968;2022-11-20T03:38:35;4.20;99.90
5834;DHT22;2943;48.012;10.968;2022-11-20T03:41:03;4.30;99.90
5834;DHT22;2943;48.012;10.968;2022-11-20T03:43:32;4.30;99.90
5834;DHT22;2943;48.012;10.968;2022-11-20T03:45:59;4.30;99.90
5834;DHT22;2943;48.012;10.968;2022-11-20T03:48:28;4.30;99.90
5834;DHT22;2943;48.012;10.968;2022-11-20T03:51:07;4.30;99.90
5834;DHT22;2943;48.012;10.968;2022-11-20T03:53:34;4.30;99.90
5834;DHT22;2943;48.012;10.968;2022-11-20T03:56:01;4.30;99.90
5834;DHT22;2943;48.012;10.968;2022-11-20T03:58:28;4.30;99.90
5834;DHT22;2943;48.012;10.968;2022-11-20T04:00:55;4.30;99.90
5834;DHT22;2943;48.012;10.968;2022-11-20T04:03:22;4.30;99.90
5834;DHT22;2943;48.012;10.968;2022-11-20T04:05:50;4.30;99.90
5834;DHT22;2943;48.012;10.968;2022-11-20T04:08:17;4.30;99.90
5834;DHT22;2943;48.012;10.968;2022-11-20T04:10:44;4.30;99.90
5834;DHT22;2943;48.012;10.968;2022-11-20T04:13:11;4.30;99.90
5834;DHT22;2943;48.012;10.968;2022-11-20T04:15:38;4.30;99.90
5834;DHT22;2943;48.012;10.968;2022-11-20T04:18:06;4.30;99.90
5834;DHT22;2943;48.012;10.968;2022-11-20T04:20:33;4.30;99.90
5834;DHT22;2943;48.012;10.968;2022-11-20T04:23:01;4.30;99.90
5834;DHT22;2943;48.012;10.968;2022-11-20T04:25:28;4.30;99.90
5834;DHT22;2943;48.012;10.968;2022-11-20T04:27:55;4.30;99.90
5834;DHT22;2943;48.012;10.968;2022-11-20T04:30:22;4.30;99.90
5834;DHT22;2943;48.012;10.968;2022-11-20T04:32:49;4.30;99.90
5834;DHT22;2943;48.012;10.968;2022-11-20T04:35:16;4.30;99.90
5834;DHT22;2943;48.012;10.968;2022-11-20T04:37:43;4.30;99.90
5834;DHT22;2943;48.012;10.968;2022-11-20T04:40:12;4.30;99.90
5834;DHT22;2943;48.012;10.968;2022-11-20T04:42:39;4.30;99.90
5834;DHT22;2943;48.012;10.968;2022-11-20T04:45:06;4.30;99.90
5834;DHT22;2943;48.012;10.968;2022-11-20T04:47:33;4.30;99.90
5834;DHT22;2943;48.012;10.968;2022-11-20T04:50:00;4.30;99.90
5834;DHT22;2943;48.012;10.968;2022-11-20T04:52:28;4.30;99.90
5834;DHT22;2943;48.012;10.968;2022-11-20T04:54:55;4.20;99.90
5834;DHT22;2943;48.012;10.968;2022-11-20T04:57:23;4.30;99.90
5834;DHT22;2943;48.012;10.968;2022-11-20T04:59:50;4.30;99.90
5834;DHT22;2943;48.012;10.968;2022-11-20T05:02:17;4.20;99.90
5834;DHT22;2943;48.012;10.968;2022-11-20T05:04:44;4.20;99.90
5834;DHT22;2943;48.012;10.968;2022-11-20T05:07:11;4.20;99.90
5834;DHT22;2943;48.012;10.968;2022-11-20T05:09:38;4.20;99.90
5834;DHT22;2943;48.012;10.968;2022-11-20T05:12:07;4.20;99.90
5834;DHT22;2943;48.012;10.968;2022-11-20T05:14:36;4.20;99.90
5834;DHT22;2943;48.012;10.968;2022-11-20T05:17:03;4.20;99.90
5834;DHT22;2943;48.012;10.968;2022-11-20T05:19:29;4.20;99.90
5834;DHT22;2943;48.012;10.968;2022-11-20T05:21:57;4.20;99.90
5834;DHT22;2943;48.012;10.968;2022-11-20T05:24:24;4.30;99.90
5834;DHT22;2943;48.012;10.968;2022-11-20T05:26:50;4.20;99.90
5834;DHT22;2943;48.012;10.968;2022-11-20T05:29:17;4.30;99.90
5834;DHT22;2943;48.012;10.968;2022-11-20T05:31:46;4.20;99.90
5834;DHT22;2943;48.012;10.968;2022-11-20T05:34:13;4.20;99.90
5834;DHT22;2943;48.012;10.968;2022-11-20T05:36:40;4.20;99.90
5834;DHT22;2943;48.012;10.968;2022-11-20T05:39:07;4.30;99.90
5834;DHT22;2943;48.012;10.968;2022-11-20T05:41:35;4.20;99.90
5834;DHT22;2943;48.012;10.968;2022-11-20T05:44:02;4.20;99.90
5834;DHT22;2943;48.012;10.968;2022-11-20T05:46:29;4.20;99.90
5834;DHT22;2943;48.012;10.968;2022-11-20T05:48:57;4.30;99.90
5834;DHT22;2943;48.012;10.968;2022-11-20T05:51:25;4.20;99.90
5834;DHT22;2943;48.012;10.968;2022-11-20T05:53:52;4.20;99.90
5834;DHT22;2943;48.012;10.968;2022-11-20T05:56:20;4.20;99.90
5834;DHT22;2943;48.012;10.968;2022-11-20T05:58:48;4.20;99.90
5834;DHT22;2943;48.012;10.968;2022-11-20T06:01:16;4.20;99.90
5834;DHT22;2943;48.012;10.968;2022-11-20T06:03:45;4.20;99.90
5834;DHT22;2943;48.012;10.968;2022-11-20T06:06:15;4.20;99.90
5834;DHT22;2943;48.012;10.968;2022-11-20T06:08:42;4.20;99.90
5834;DHT22;2943;48.012;10.968;2022-11-20T06:11:11;4.10;99.90
5834;DHT22;2943;48.012;10.968;2022-11-20T06:13:39;4.10;99.90
5834;DHT22;2943;48.012;10.968;2022-11-20T06:16:07;4.10;99.90
5834;DHT22;2943;48.012;10.968;2022-11-20T06:18:34;4.10;99.90
5834;DHT22;2943;48.012;10.968;2022-11-20T06:21:03;4.10;99.90
5834;DHT22;2943;48.012;10.968;2022-11-20T06:23:37;4.00;99.90
5834;DHT22;2943;48.012;10.968;2022-11-20T06:26:05;4.00;99.90
5834;DHT22;2943;48.012;10.968;2022-11-20T06:28:33;4.00;99.90
5834;DHT22;2943;48.012;10.968;2022-11-20T06:31:00;4.00;99.90
5834;DHT22;2943;48.012;10.968;2022-11-20T06:33:27;4.00;99.90
5834;DHT22;2943;48.012;10.968;2022-11-20T06:35:56;4.00;99.90
5834;DHT22;2943;48.012;10.968;2022-11-20T06:38:23;4.00;99.90
5834;DHT22;2943;48.012;10.968;2022-11-20T06:40:52;4.00;99.90
5834;DHT22;2943;48.012;10.968;2022-11-20T06:43:19;4.00;99.90
5834;DHT22;2943;48.012;10.968;2022-11-20T06:45:51;4.00;99.90
5834;DHT22;2943;48.012;10.968;2022-11-20T06:48:19;4.00;99.90
5834;DHT22;2943;48.012;10.968;2022-11-20T06:50:45;4.00;99.90
5834;DHT22;2943;48.012;10.968;2022-11-20T06:53:13;4.00;99.90
5834;DHT22;2943;48.012;10.968;2022-11-20T06:55:42;4.00;99.90
5834;DHT22;2943;48.012;10.968;2022-11-20T06:58:15;4.00;99.90
5834;DHT22;2943;48.012;10.968;2022-11-20T07:00:43;4.00;99.90
5834;DHT22;2943;48.012;10.968;2022-11-20T07:03:11;4.00;99.90
5834;DHT22;2943;48.012;10.968;2022-11-20T07:05:38;4.00;99.90
5834;DHT22;2943;48.012;10.968;2022-11-20T07:08:06;4.00;99.90
5834;DHT22;2943;48.012;10.968;2022-11-20T07:10:33;4.10;99.90
5834;DHT22;2943;48.012;10.968;2022-11-20T07:13:00;4.10;99.90
5834;DHT22;2943;48.012;10.968;2022-11-20T07:15:29;4.10;99.90
5834;DHT22;2943;48.012;10.968;2022-11-20T07:17:58;4.10;99.90
5834;DHT22;2943;48.012;10.968;2022-11-20T07:20:25;4.10;99.90
5834;DHT22;2943;48.012;10.968;2022-11-20T07:22:53;4.10;99.90
5834;DHT22;2943;48.012;10.968;2022-11-20T07:25:21;4.20;99.90
5834;DHT22;2943;48.012;10.968;2022-11-20T07:27:48;4.20;99.90
5834;DHT22;2943;48.012;10.968;2022-11-20T07:30:15;4.20;99.90
5834;DHT22;2943;48.012;10.968;2022-11-20T07:32:46;4.20;99.90
5834;DHT22;2943;48.012;10.968;2022-11-20T07:35:14;4.30;99.90
5834;DHT22;2943;48.012;10.968;2022-11-20T07:37:43;4.20;99.90
5834;DHT22;2943;48.012;10.968;2022-11-20T07:40:12;4.30;99.90
5834;DHT22;2943;48.012;10.968;2022-11-20T07:42:38;4.30;99.90
5834;DHT22;2943;48.012;10.968;2022-11-20T07:45:06;4.30;99.90
5834;DHT22;2943;48.012;10.968;2022-11-20T07:47:35;4.30;99.90
5834;DHT22;2943;48.012;10.968;2022-11-20T07:50:05;4.30;99.90
5834;DHT22;2943;48.012;10.968;2022-11-20T07:52:33;4.30;99.90
5834;DHT22;2943;48.012;10.968;2022-11-20T07:55:00;4.40;99.90
5834;DHT22;2943;48.012;10.968;2022-11-20T07:57:27;4.40;99.90
5834;DHT22;2943;48.012;10.968;2022-11-20T07:59:54;4.40;99.90
5834;DHT22;2943;48.012;10.968;2022-11-20T08:02:21;4.50;99.90
5834;DHT22;2943;48.012;10.968;2022-11-20T08:04:48;4.50;99.90
5834;DHT22;2943;48.012;10.968;2022-11-20T08:07:16;4.50;99.90
5834;DHT22;2943;48.012;10.968;2022-11-20T08:09:43;4.50;99.90
5834;DHT22;2943;48.012;10.968;2022-11-20T08:12:17;4.60;99.90
5834;DHT22;2943;48.012;10.968;2022-11-20T08:15:02;4.60;99.90
5834;DHT22;2943;48.012;10.968;2022-11-20T08:17:29;4.60;99.90
5834;DHT22;2943;48.012;10.968;2022-11-20T08:19:56;4.60;99.90
5834;DHT22;2943;48.012;10.968;2022-11-20T08:22:24;4.70;99.90
5834;DHT22;2943;48.012;10.968;2022-11-20T08:24:51;4.70;99.90
5834;DHT22;2943;48.012;10.968;2022-11-20T08:27:18;4.70;99.90
5834;DHT22;2943;48.012;10.968;2022-11-20T08:29:45;4.70;99.90
5834;DHT22;2943;48.012;10.968;2022-11-20T08:32:12;4.80;99.90
5834;DHT22;2943;48.012;10.968;2022-11-20T08:34:39;4.80;99.90
5834;DHT22;2943;48.012;10.968;2022-11-20T08:37:06;4.80;99.90
5834;DHT22;2943;48.012;10.968;2022-11-20T08:39:35;4.90;99.90
5834;DHT22;2943;48.012;10.968;2022-11-20T08:42:02;4.90;99.90
5834;DHT22;2943;48.012;10.968;2022-11-20T08:44:30;4.90;99.90
5834;DHT22;2943;48.012;10.968;2022-11-20T08:47:03;4.90;99.90
5834;DHT22;2943;48.012;10.968;2022-11-20T08:49:30;5.00;99.90
5834;DHT22;2943;48.012;10.968;2022-11-20T08:51:59;5.00;99.90
5834;DHT22;2943;48.012;10.968;2022-11-20T08:54:28;5.00;99.90
5834;DHT22;2943;48.012;10.968;2022-11-20T08:56:57;5.00;99.90
5834;DHT22;2943;48.012;10.968;2022-11-20T08:59:23;5.00;99.90
5834;DHT22;2943;48.012;10.968;2022-11-20T09:01:50;5.00;99.90
5834;DHT22;2943;48.012;10.968;2022-11-20T09:04:17;5.10;99.90
5834;DHT22;2943;48.012;10.968;2022-11-20T09:06:44;5.20;99.90
5834;DHT22;2943;48.012;10.968;2022-11-20T09:09:16;5.20;99.90
5834;DHT22;2943;48.012;10.968;2022-11-20T09:11:45;5.30;99.90
5834;DHT22;2943;48.012;10.968;2022-11-20T09:14:13;5.30;99.90
5834;DHT22;2943;48.012;10.968;2022-11-20T09:16:40;5.40;99.90
5834;DHT22;2943;48.012;10.968;2022-11-20T09:19:07;5.40;99.90
5834;DHT22;2943;48.012;10.968;2022-11-20T09:21:35;5.30;99.90
5834;DHT22;2943;48.012;10.968;2022-11-20T09:24:04;5.50;99.90
5834;DHT22;2943;48.012;10.968;2022-11-20T09:26:31;5.50;99.90
5834;DHT22;2943;48.012;10.968;2022-11-20T09:28:58;5.60;99.90
5834;DHT22;2943;48.012;10.968;2022-11-20T09:31:26;5.70;99.90
5834;DHT22;2943;48.012;10.968;2022-11-20T09:33:53;5.80;99.90
5834;DHT22;2943;48.012;10.968;2022-11-20T09:36:23;5.80;99.90
5834;DHT22;2943;48.012;10.968;2022-11-20T09:38:52;5.90;99.90
5834;DHT22;2943;48.012;10.968;2022-11-20T09:41:50;5.90;99.90
5834;DHT22;2943;48.012;10.968;2022-11-20T09:44:32;6.00;99.90
5834;DHT22;2943;48.012;10.968;2022-11-20T09:47:11;6.00;99.90
5834;DHT22;2943;48.012;10.968;2022-11-20T09:49:52;6.00;99.90
5834;DHT22;2943;48.012;10.968;2022-11-20T09:52:32;6.10;99.90
5834;DHT22;2943;48.012;10.968;2022-11-20T09:55:02;6.20;99.90
5834;DHT22;2943;48.012;10.968;2022-11-20T09:57:35;6.20;99.90
5834;DHT22;2943;48.012;10.968;2022-11-20T10:00:08;6.30;99.90
5834;DHT22;2943;48.012;10.968;2022-11-20T10:02:42;6.30;99.90
5834;DHT22;2943;48.012;10.968;2022-11-20T10:05:17;6.40;99.90
5834;DHT22;2943;48.012;10.968;2022-11-20T10:07:50;6.40;99.90
5834;DHT22;2943;48.012;10.968;2022-11-20T10:10:29;6.30;99.90
5834;DHT22;2943;48.012;10.968;2022-11-20T10:13:22;6.40;99.90
5834;DHT22;2943;48.012;10.968;2022-11-20T10:16:03;6.30;99.90
5834;DHT22;2943;48.012;10.968;2022-11-20T10:18:44;6.30;99.90
5834;DHT22;2943;48.012;10.968;2022-11-20T10:21:25;6.40;99.90
5834;DHT22;2943;48.012;10.968;2022-11-20T10:24:23;6.40;99.90
5834;DHT22;2943;48.012;10.968;2022-11-20T10:26:58;6.50;99.90
5834;DHT22;2943;48.012;10.968;2022-11-20T10:29:32;6.50;99.90
5834;DHT22;2943;48.012;10.968;2022-11-20T10:32:02;6.60;99.90
5834;DHT22;2943;48.012;10.968;2022-11-20T10:34:35;6.60;99.90
5834;DHT22;2943;48.012;10.968;2022-11-20T10:37:12;6.50;99.90
5834;DHT22;2943;48.012;10.968;2022-11-20T10:39:44;6.50;99.90
5834;DHT22;2943;48.012;10.968;2022-11-20T10:42:18;6.50;99.90
5834;DHT22;2943;48.012;10.968;2022-11-20T10:44:55;6.50;99.90
5834;DHT22;2943;48.012;10.968;2022-11-20T10:47:30;6.40;99.90
5834;DHT22;2943;48.012;10.968;2022-11-20T10:50:03;6.40;99.90
5834;DHT22;2943;48.012;10.968;2022-11-20T10:52:39;6.40;99.90
5834;DHT22;2943;48.012;10.968;2022-11-20T10:55:22;6.40;99.90
5834;DHT22;2943;48.012;10.968;2022-11-20T10:57:56;6.30;99.90
5834;DHT22;2943;48.012;10.968;2022-11-20T11:00:30;6.40;99.90
5834;DHT22;2943;48.012;10.968;2022-11-20T11:02:57;6.50;99.90
5834;DHT22;2943;48.012;10.968;2022-11-20T11:05:37;6.50;99.90
5834;DHT22;2943;48.012;10.968;2022-11-20T11:08:10;6.60;99.90
5834;DHT22;2943;48.012;10.968;2022-11-20T11:10:43;6.70;99.90
5834;DHT22;2943;48.012;10.968;2022-11-20T11:13:20;6.90;99.90
5834;DHT22;2943;48.012;10.968;2022-11-20T11:15:50;6.90;99.90
5834;DHT22;2943;48.012;10.968;2022-11-20T11:18:24;7.00;99.90
5834;DHT22;2943;48.012;10.968;2022-11-20T11:20:54;7.00;99.90
5834;DHT22;2943;48.012;10.968;2022-11-20T11:23:33;7.00;99.90
5834;DHT22;2943;48.012;10.968;2022-11-20T11:26:02;6.90;99.90
5834;DHT22;2943;48.012;10.968;2022-11-20T11:28:30;6.90;99.90
5834;DHT22;2943;48.012;10.968;2022-11-20T11:30:57;6.90;99.90
5834;DHT22;2943;48.012;10.968;2022-11-20T11:33:26;7.00;99.90
5834;DHT22;2943;48.012;10.968;2022-11-20T11:35:56;7.00;99.90
5834;DHT22;2943;48.012;10.968;2022-11-20T11:38:29;7.00;99.90
5834;DHT22;2943;48.012;10.968;2022-11-20T11:40:57;6.90;99.90
5834;DHT22;2943;48.012;10.968;2022-11-20T11:43:27;6.90;99.90
5834;DHT22;2943;48.012;10.968;2022-11-20T11:46:31;6.90;99.90
5834;DHT22;2943;48.012;10.968;2022-11-20T11:49:00;6.90;99.90
5834;DHT22;2943;48.012;10.968;2022-11-20T11:51:38;6.80;99.90
5834;DHT22;2943;48.012;10.968;2022-11-20T11:54:15;6.80;99.90
5834;DHT22;2943;48.012;10.968;2022-11-20T11:56:45;6.70;99.90
5834;DHT22;2943;48.012;10.968;2022-11-20T11:59:16;6.60;99.90
5834;DHT22;2943;48.012;10.968;2022-11-20T12:01:47;6.60;99.90
5834;DHT22;2943;48.012;10.968;2022-11-20T12:04:21;6.50;99.90
5834;DHT22;2943;48.012;10.968;2022-11-20T12:06:58;6.40;99.90
5834;DHT22;2943;48.012;10.968;2022-11-20T12:09:35;6.30;99.90
5834;DHT22;2943;48.012;10.968;2022-11-20T12:12:08;6.20;99.90
5834;DHT22;2943;48.012;10.968;2022-11-20T12:14:38;6.00;99.90
5834;DHT22;2943;48.012;10.968;2022-11-20T12:17:09;5.90;99.90
5834;DHT22;2943;48.012;10.968;2022-11-20T12:19:37;5.70;99.90
5834;DHT22;2943;48.012;10.968;2022-11-20T12:22:16;5.60;99.90
5834;DHT22;2943;48.012;10.968;2022-11-20T12:24:54;5.60;99.90
5834;DHT22;2943;48.012;10.968;2022-11-20T12:27:49;5.60;99.90
5834;DHT22;2943;48.012;10.968;2022-11-20T12:30:19;5.60;99.90
5834;DHT22;2943;48.012;10.968;2022-11-20T12:32:57;5.50;99.90
5834;DHT22;2943;48.012;10.968;2022-11-20T12:35:43;5.50;99.90
5834;DHT22;2943;48.012;10.968;2022-11-20T12:38:42;5.50;99.90
5834;DHT22;2943;48.012;10.968;2022-11-20T12:41:15;5.50;99.90
5834;DHT22;2943;48.012;10.968;2022-11-20T12:44:06;5.50;99.90
5834;DHT22;2943;48.012;10.968;2022-11-20T12:47:04;5.50;99.90
5834;DHT22;2943;48.012;10.968;2022-11-20T12:49:39;5.50;99.90
5834;DHT22;2943;48.012;10.968;2022-11-20T12:52:20;5.50;99.90
5834;DHT22;2943;48.012;10.968;2022-11-20T12:55:16;5.50;99.90
5834;DHT22;2943;48.012;10.968;2022-11-20T12:57:54;5.60;99.90
5834;DHT22;2943;48.012;10.968;2022-11-20T13:00:22;5.50;99.90
5834;DHT22;2943;48.012;10.968;2022-11-20T13:06:00;5.50;99.90
5834;DHT22;2943;48.012;10.968;2022-11-20T13:08:34;5.40;99.90
5834;DHT22;2943;48.012;10.968;2022-11-20T13:11:09;5.50;99.90
5834;DHT22;2943;48.012;10.968;2022-11-20T13:13:47;5.40;99.90
5834;DHT22;2943;48.012;10.968;2022-11-20T13:16:22;5.40;99.90
5834;DHT22;2943;48.012;10.968;2022-11-20T13:18:51;5.40;99.90
5834;DHT22;2943;48.012;10.968;2022-11-20T13:21:20;5.40;99.90
5834;DHT22;2943;48.012;10.968;2022-11-20T13:23:47;5.50;99.90
5834;DHT22;2943;48.012;10.968;2022-11-20T13:26:19;5.40;99.90
5834;DHT22;2943;48.012;10.968;2022-11-20T13:28:58;5.50;99.90
5834;DHT22;2943;48.012;10.968;2022-11-20T13:31:30;5.50;99.90
5834;DHT22;2943;48.012;10.968;2022-11-20T13:33:59;5.50;99.90
5834;DHT22;2943;48.012;10.968;2022-11-20T13:36:28;5.50;99.90
5834;DHT22;2943;48.012;10.968;2022-11-20T13:38:56;5.50;99.90
5834;DHT22;2943;48.012;10.968;2022-11-20T13:41:26;5.50;99.90
5834;DHT22;2943;48.012;10.968;2022-11-20T13:43:58;5.50;99.90
5834;DHT22;2943;48.012;10.968;2022-11-20T13:46:36;5.50;99.90
5834;DHT22;2943;48.012;10.968;2022-11-20T13:49:09;5.50;99.90
5834;DHT22;2943;48.012;10.968;2022-11-20T13:51:42;5.60;99.90
5834;DHT22;2943;48.012;10.968;2022-11-20T13:54:27;5.50;99.90
5834;DHT22;2943;48.012;10.968;2022-11-20T13:57:07;5.30;99.90
5834;DHT22;2943;48.012;10.968;2022-11-20T13:59:53;5.20;99.90
5834;DHT22;2943;48.012;10.968;2022-11-20T14:02:26;5.20;99.90
5834;DHT22;2943;48.012;10.968;2022-11-20T14:04:56;5.10;99.90
5834;DHT22;2943;48.012;10.968;2022-11-20T14:07:27;5.10;99.90
5834;DHT22;2943;48.012;10.968;2022-11-20T14:09:58;5.00;99.90
5834;DHT22;2943;48.012;10.968;2022-11-20T14:12:30;5.00;99.90
5834;DHT22;2943;48.012;10.968;2022-11-20T14:14:58;5.10;99.90
5834;DHT22;2943;48.012;10.968;2022-11-20T14:17:32;5.10;99.90
5834;DHT22;2943;48.012;10.968;2022-11-20T14:20:01;5.10;99.90
5834;DHT22;2943;48.012;10.968;2022-11-20T14:22:29;5.00;99.90
5834;DHT22;2943;48.012;10.968;2022-11-20T14:25:05;5.00;99.90
5834;DHT22;2943;48.012;10.968;2022-11-20T14:27:36;5.00;99.90
5834;DHT22;2943;48.012;10.968;2022-11-20T14:30:05;5.00;99.90
5834;DHT22;2943;48.012;10.968;2022-11-20T14:32:35;5.00;99.90
5834;DHT22;2943;48.012;10.968;2022-11-20T14:35:07;5.00;99.90
5834;DHT22;2943;48.012;10.968;2022-11-20T14:37:37;5.10;99.90
5834;DHT22;2943;48.012;10.968;2022-11-20T14:40:21;5.10;99.90
5834;DHT22;2943;48.012;10.968;2022-11-20T14:42:50;5.10;99.90
5834;DHT22;2943;48.012;10.968;2022-11-20T14:45:17;5.20;99.90
5834;DHT22;2943;48.012;10.968;2022-11-20T14:47:45;5.20;99.90
5834;DHT22;2943;48.012;10.968;2022-11-20T14:50:16;5.20;99.90
5834;DHT22;2943;48.012;10.968;2022-11-20T14:52:50;5.20;99.90
5834;DHT22;2943;48.012;10.968;2022-11-20T14:55:26;5.30;99.90
5834;DHT22;2943;48.012;10.968;2022-11-20T14:57:59;5.20;99.90
5834;DHT22;2943;48.012;10.968;2022-11-20T15:00:28;5.20;99.90
5834;DHT22;2943;48.012;10.968;2022-11-20T15:02:55;5.30;99.90
5834;DHT22;2943;48.012;10.968;2022-11-20T15:05:24;5.30;99.90
5834;DHT22;2943;48.012;10.968;2022-11-20T15:08:04;5.20;99.90
5834;DHT22;2943;48.012;10.968;2022-11-20T15:10:32;5.20;99.90
5834;DHT22;2943;48.012;10.968;2022-11-20T15:13:03;5.20;99.90
5834;DHT22;2943;48.012;10.968;2022-11-20T15:15:36;5.20;99.90
5834;DHT22;2943;48.012;10.968;2022-11-20T15:18:11;5.10;99.90
5834;DHT22;2943;48.012;10.968;2022-11-20T15:20:40;5.10;99.90
5834;DHT22;2943;48.012;10.968;2022-11-20T15:23:11;5.20;99.90
5834;DHT22;2943;48.012;10.968;2022-11-20T15:25:38;5.20;99.90
5834;DHT22;2943;48.012;10.968;2022-11-20T15:28:15;5.10;99.90
5834;DHT22;2943;48.012;10.968;2022-11-20T15:30:43;5.10;99.90
5834;DHT22;2943;48.012;10.968;2022-11-20T15:33:10;5.10;99.90
5834;DHT22;2943;48.012;10.968;2022-11-20T15:35:40;5.10;99.90
5834;DHT22;2943;48.012;10.968;2022-11-20T15:38:07;5.10;99.90
5834;DHT22;2943;48.012;10.968;2022-11-20T15:40:35;5.00;99.90
5834;DHT22;2943;48.012;10.968;2022-11-20T15:43:02;5.10;99.90
5834;DHT22;2943;48.012;10.968;2022-11-20T15:45:35;5.00;99.90
5834;DHT22;2943;48.012;10.968;2022-11-20T15:48:04;5.10;99.90
5834;DHT22;2943;48.012;10.968;2022-11-20T15:50:36;5.00;99.90
5834;DHT22;2943;48.012;10.968;2022-11-20T15:53:03;5.00;99.90
5834;DHT22;2943;48.012;10.968;2022-11-20T15:55:31;5.00;99.90
5834;DHT22;2943;48.012;10.968;2022-11-20T15:57:58;5.00;99.90
5834;DHT22;2943;48.012;10.968;2022-11-20T16:00:25;4.90;99.90
5834;DHT22;2943;48.012;10.968;2022-11-20T16:02:53;4.90;99.90
5834;DHT22;2943;48.012;10.968;2022-11-20T16:05:20;4.90;99.90
5834;DHT22;2943;48.012;10.968;2022-11-20T16:07:48;4.80;99.90
5834;DHT22;2943;48.012;10.968;2022-11-20T16:10:16;4.70;99.90
5834;DHT22;2943;48.012;10.968;2022-11-20T16:12:43;4.80;99.90
5834;DHT22;2943;48.012;10.968;2022-11-20T16:15:28;4.70;99.90
5834;DHT22;2943;48.012;10.968;2022-11-20T16:18:22;4.70;99.90
5834;DHT22;2943;48.012;10.968;2022-11-20T16:20:51;4.70;99.90
5834;DHT22;2943;48.012;10.968;2022-11-20T16:23:19;4.70;99.90
5834;DHT22;2943;48.012;10.968;2022-11-20T16:25:47;4.70;99.90
5834;DHT22;2943;48.012;10.968;2022-11-20T16:28:14;4.60;99.90